createdAt,value
2023-10-24T00:00:41.277Z,2.70
2023-10-24T00:03:11.760Z,2.70
2023-10-24T00:05:39.414Z,3.03
2023-10-24T00:08:10.036Z,2.97
2023-10-24T00:10:37.773Z,2.67
2023-10-24T00:13:05.260Z,3.03
2023-10-24T00:15:32.939Z,3.00
2023-10-24T00:18:00.622Z,2.97
2023-10-24T00:20:28.327Z,3.13
2023-10-24T00:22:55.689Z,2.55
2023-10-24T00:25:23.408Z,2.63
2023-10-24T00:27:50.947Z,2.50
2023-10-24T00:30:18.649Z,2.60
2023-10-24T00:32:50.892Z,2.95
2023-10-24T00:35:19.134Z,2.45
2023-10-24T00:37:46.788Z,2.90
2023-10-24T00:40:14.361Z,2.63
2023-10-24T00:42:41.847Z,2.72
2023-10-24T00:45:10.845Z,2.47
2023-10-24T00:47:41.335Z,2.80
2023-10-24T00:50:09.518Z,2.50
2023-10-24T00:52:37.982Z,2.63
2023-10-24T00:55:09.075Z,2.63
2023-10-24T00:57:37.432Z,2.38
2023-10-24T01:00:05.362Z,2.80
2023-10-24T01:02:33.227Z,2.63
2023-10-24T01:05:01.805Z,2.28
2023-10-24T01:07:29.538Z,2.33
2023-10-24T01:09:57.048Z,2.72
2023-10-24T01:12:24.568Z,2.40
2023-10-24T01:14:52.193Z,2.25
2023-10-24T01:17:19.830Z,2.60
2023-10-24T01:19:48.635Z,2.42
2023-10-24T01:22:18.997Z,2.72
2023-10-24T01:24:49.117Z,2.60
2023-10-24T01:27:17.626Z,2.60
2023-10-24T01:29:45.129Z,2.33
2023-10-24T01:32:12.864Z,2.53
2023-10-24T01:34:40.699Z,2.58
2023-10-24T01:37:08.377Z,2.40
2023-10-24T01:39:36.096Z,2.38
2023-10-24T01:42:03.720Z,2.63
2023-10-24T01:44:31.381Z,2.33
2023-10-24T01:46:59.461Z,2.38
2023-10-24T01:49:27.131Z,2.25
2023-10-24T01:51:54.596Z,2.10
2023-10-24T01:54:22.239Z,2.38
2023-10-24T01:56:49.807Z,2.63
2023-10-24T01:59:17.271Z,2.05
2023-10-24T02:01:44.831Z,2.28
2023-10-24T02:04:15.160Z,2.00
2023-10-24T02:06:42.934Z,2.40
2023-10-24T02:09:12.365Z,1.90
2023-10-24T02:11:39.766Z,2.58
2023-10-24T02:14:07.399Z,2.40
2023-10-24T02:16:37.146Z,2.30
2023-10-24T02:19:05.902Z,2.25
2023-10-24T02:21:33.445Z,2.45
2023-10-24T02:24:01.118Z,2.10
2023-10-24T02:26:29.707Z,2.20
2023-10-24T02:28:58.302Z,2.20
2023-10-24T02:31:25.945Z,2.30
2023-10-24T02:33:54.634Z,2.03
2023-10-24T02:36:22.345Z,1.95
2023-10-24T02:38:50.289Z,2.60
2023-10-24T02:41:17.709Z,2.20
2023-10-24T02:43:45.439Z,2.03
2023-10-24T02:46:13.756Z,2.40
2023-10-24T02:48:41.526Z,2.72
2023-10-24T02:51:09.105Z,2.63
2023-10-24T02:53:36.746Z,2.30
2023-10-24T02:56:04.571Z,2.33
2023-10-24T02:58:32.533Z,2.45
2023-10-24T03:01:06.908Z,2.63
2023-10-24T03:03:34.752Z,2.60
2023-10-24T03:06:02.535Z,2.70
2023-10-24T03:08:30.158Z,2.72
2023-10-24T03:10:58.774Z,2.83
2023-10-24T03:13:26.334Z,2.22
2023-10-24T03:15:55.956Z,2.40
2023-10-24T03:18:26.369Z,2.00
2023-10-24T03:20:54.059Z,2.30
2023-10-24T03:23:21.460Z,2.25
2023-10-24T03:25:49.251Z,1.83
2023-10-24T03:28:16.907Z,2.47
2023-10-24T03:30:44.745Z,2.20
2023-10-24T03:33:12.397Z,2.25
2023-10-24T03:35:41.247Z,2.30
2023-10-24T03:38:09.056Z,2.13
2023-10-24T03:40:39.497Z,2.03
2023-10-24T03:43:09.510Z,2.10
2023-10-24T03:45:39.287Z,2.17
2023-10-24T03:48:07.072Z,1.95
2023-10-24T03:50:38.489Z,1.90
2023-10-24T03:53:06.846Z,2.28
2023-10-24T03:55:35.345Z,2.28
2023-10-24T03:58:04.081Z,2.15
2023-10-24T04:00:31.724Z,2.22
2023-10-24T04:03:01.753Z,2.17
2023-10-24T04:05:35.252Z,1.73
2023-10-24T04:08:04.383Z,2.40
2023-10-24T04:10:34.697Z,2.03
2023-10-24T04:13:02.962Z,2.37
2023-10-24T04:15:32.639Z,2.80
2023-10-24T04:18:00.302Z,2.92
2023-10-24T04:20:27.899Z,3.10
2023-10-24T04:22:55.545Z,2.80
2023-10-24T04:25:23.385Z,3.00
2023-10-24T04:27:51.124Z,3.20
2023-10-24T04:30:19.803Z,2.88
2023-10-24T04:32:49.728Z,2.83
2023-10-24T04:35:17.141Z,3.17
2023-10-24T04:37:47.563Z,3.30
2023-10-24T04:40:15.581Z,3.50
2023-10-24T04:42:43.309Z,3.30
2023-10-24T04:45:10.878Z,2.88
2023-10-24T04:47:38.410Z,3.40
2023-10-24T04:50:06.933Z,3.40
2023-10-24T04:52:34.567Z,3.28
2023-10-24T04:55:02.183Z,3.47
2023-10-24T04:57:32.068Z,3.40
2023-10-24T05:00:00.131Z,3.70
2023-10-24T05:02:28.694Z,3.50
2023-10-24T05:04:59.176Z,3.47
2023-10-24T05:07:29.108Z,3.75
2023-10-24T05:09:56.421Z,3.40
2023-10-24T05:12:24.392Z,3.97
2023-10-24T05:14:51.862Z,4.22
2023-10-24T05:17:21.772Z,3.30
2023-10-24T05:19:49.589Z,3.30
2023-10-24T05:22:17.150Z,3.50
2023-10-24T05:24:44.732Z,3.13
2023-10-24T05:27:12.319Z,3.00
2023-10-24T05:29:44.141Z,2.90
2023-10-24T05:32:12.102Z,3.25
2023-10-24T05:34:39.720Z,2.92
2023-10-24T05:37:07.468Z,2.83
2023-10-24T05:39:34.882Z,3.22
2023-10-24T05:42:02.458Z,2.63
2023-10-24T05:44:30.146Z,3.03
2023-10-24T05:47:00.338Z,2.90
2023-10-24T05:49:28.683Z,2.75
2023-10-24T05:51:56.275Z,3.00
2023-10-24T05:54:23.854Z,2.92
2023-10-24T05:56:54.133Z,2.60
2023-10-24T05:59:23.815Z,2.50
2023-10-24T06:01:51.595Z,2.60
2023-10-24T06:04:21.595Z,2.55
2023-10-24T06:06:51.553Z,2.65
2023-10-24T06:09:21.607Z,2.85
2023-10-24T06:11:53.451Z,3.05
2023-10-24T06:14:23.539Z,2.78
2023-10-24T06:16:50.950Z,2.65
2023-10-24T06:19:18.638Z,2.50
2023-10-24T06:21:46.084Z,2.53
2023-10-24T06:24:13.577Z,2.53
2023-10-24T06:26:41.267Z,2.55
2023-10-24T06:29:08.659Z,2.35
2023-10-24T06:31:36.232Z,2.60
2023-10-24T06:34:04.692Z,2.47
2023-10-24T06:36:32.220Z,2.15
2023-10-24T06:39:02.635Z,2.58
2023-10-24T06:41:30.166Z,2.37
2023-10-24T06:43:57.661Z,2.42
2023-10-24T06:46:25.570Z,2.42
2023-10-24T06:48:54.112Z,2.70
2023-10-24T06:51:21.662Z,2.50
2023-10-24T06:53:49.093Z,2.50
2023-10-24T06:56:18.877Z,2.60
2023-10-24T06:58:48.375Z,2.40
2023-10-24T07:01:15.867Z,2.00
2023-10-24T07:03:44.685Z,2.55
2023-10-24T07:06:12.174Z,2.00
2023-10-24T07:08:41.384Z,2.00
2023-10-24T07:11:09.367Z,2.55
2023-10-24T07:13:38.516Z,2.33
2023-10-24T07:16:16.941Z,2.45
2023-10-24T07:18:44.658Z,2.38
2023-10-24T07:21:16.624Z,2.33
2023-10-24T07:23:44.386Z,2.58
2023-10-24T07:26:12.287Z,2.22
2023-10-24T07:28:39.695Z,2.30
2023-10-24T07:31:07.411Z,2.55
2023-10-24T07:33:35.072Z,2.22
2023-10-24T07:36:06.803Z,2.10
2023-10-24T07:38:34.345Z,2.55
2023-10-24T07:41:02.872Z,2.20
2023-10-24T07:43:30.404Z,2.55
2023-10-24T07:46:00.328Z,2.60
2023-10-24T07:48:27.973Z,2.50
2023-10-24T07:50:59.581Z,2.70
2023-10-24T07:53:29.592Z,2.25
2023-10-24T07:55:57.373Z,2.20
2023-10-24T07:58:25.060Z,2.50
2023-10-24T08:00:52.515Z,2.20
2023-10-24T08:03:20.166Z,2.10
2023-10-24T08:05:47.727Z,2.30
2023-10-24T08:08:16.106Z,2.30
2023-10-24T08:10:43.836Z,2.40
2023-10-24T08:13:11.267Z,2.50
2023-10-24T08:15:40.106Z,2.22
2023-10-24T08:18:07.672Z,2.40
2023-10-24T08:21:02.258Z,2.35
2023-10-24T08:23:30.081Z,2.35
2023-10-24T08:26:01.131Z,2.50
2023-10-24T08:28:28.783Z,2.60
2023-10-24T08:30:56.271Z,2.13
2023-10-24T08:33:26.746Z,2.65
2023-10-24T08:35:54.115Z,2.42
2023-10-24T08:38:22.812Z,2.30
2023-10-24T08:40:52.939Z,2.20
2023-10-24T08:43:21.879Z,2.35
2023-10-24T08:45:54.163Z,2.85
2023-10-24T08:48:25.087Z,2.22
2023-10-24T08:50:52.678Z,2.22
2023-10-24T08:53:20.199Z,2.20
2023-10-24T08:55:54.654Z,2.42
2023-10-24T08:58:26.198Z,2.03
2023-10-24T09:00:56.033Z,2.25
2023-10-24T09:03:24.228Z,2.03
2023-10-24T09:05:53.379Z,2.75
2023-10-24T09:08:23.188Z,2.03
2023-10-24T09:10:51.115Z,2.38
2023-10-24T09:13:21.279Z,2.22
2023-10-24T09:20:24.979Z,2.40
2023-10-24T09:22:53.562Z,2.20
2023-10-24T09:25:24.055Z,2.38
2023-10-24T09:27:51.710Z,2.47
2023-10-24T09:30:19.259Z,2.40
2023-10-24T09:32:47.285Z,2.40
2023-10-24T09:35:15.135Z,2.58
2023-10-24T09:37:49.510Z,2.22
2023-10-24T09:40:19.347Z,2.17
2023-10-24T09:42:48.225Z,2.45
2023-10-24T09:45:18.220Z,2.40
2023-10-24T09:47:48.038Z,2.67
2023-10-24T09:50:16.392Z,2.33
2023-10-24T09:52:45.221Z,2.55
2023-10-24T09:55:14.504Z,2.40
2023-10-24T09:57:45.533Z,2.83
2023-10-24T10:00:16.155Z,2.30
2023-10-24T10:02:48.158Z,2.58
2023-10-24T10:05:16.608Z,2.70
2023-10-24T10:07:50.058Z,2.25
2023-10-24T10:10:18.005Z,2.75
2023-10-24T10:12:47.475Z,2.63
2023-10-24T10:15:45.773Z,2.90
2023-10-24T10:18:19.199Z,2.88
2023-10-24T10:20:56.440Z,2.60
2023-10-24T10:23:38.400Z,3.10
2023-10-24T10:26:09.616Z,3.90
2023-10-24T10:32:40.241Z,6.10
2023-10-24T10:34:37.568Z,6.97
2023-10-24T10:37:06.796Z,8.13
2023-10-24T10:39:34.375Z,8.65
2023-10-24T10:42:01.898Z,14.35
2023-10-24T10:44:44.545Z,13.88
2023-10-24T10:47:16.907Z,10.98
2023-10-24T10:49:55.176Z,10.63
2023-10-24T10:52:37.713Z,10.60
2023-10-24T10:55:56.415Z,9.80
2023-10-24T10:58:30.508Z,8.88
2023-10-24T11:01:22.457Z,8.20
2023-10-24T11:06:21.095Z,7.77
2023-10-24T11:09:06.896Z,6.97
2023-10-24T11:11:34.903Z,6.88
2023-10-24T11:14:18.910Z,8.23
2023-10-24T11:16:50.886Z,7.25
2023-10-24T11:19:24.186Z,7.57
2023-10-24T11:21:54.303Z,7.90
2023-10-24T11:24:23.791Z,6.45
2023-10-24T11:26:57.659Z,6.00
2023-10-24T11:29:25.807Z,6.32
2023-10-24T11:31:59.256Z,6.50
2023-10-24T11:34:28.001Z,5.68
2023-10-24T11:36:55.813Z,6.25
2023-10-24T11:39:23.341Z,6.22
2023-10-24T11:41:50.897Z,5.65
2023-10-24T11:44:19.166Z,5.78
2023-10-24T11:46:47.330Z,5.65
2023-10-24T11:49:19.618Z,5.60
2023-10-24T11:56:10.394Z,6.00
2023-10-24T11:58:37.835Z,4.70
2023-10-24T12:01:06.782Z,5.35
2023-10-24T12:03:48.123Z,5.13
2023-10-24T12:06:20.069Z,5.30
2023-10-24T12:08:56.860Z,5.50
2023-10-24T12:11:37.236Z,5.47
2023-10-24T12:14:09.555Z,4.55
2023-10-24T12:16:59.192Z,4.85
2023-10-24T12:19:28.249Z,4.70
2023-10-24T12:21:56.328Z,4.72
2023-10-24T12:24:33.135Z,4.68
2023-10-24T12:27:01.164Z,4.88
2023-10-24T12:29:28.774Z,4.75
2023-10-24T12:31:56.600Z,4.60
2023-10-24T12:34:24.414Z,4.40
2023-10-24T12:36:54.165Z,3.97
2023-10-24T12:39:22.814Z,4.28
2023-10-24T12:41:50.486Z,4.38
2023-10-24T12:44:19.092Z,4.18
2023-10-24T12:46:46.751Z,4.15
2023-10-24T12:49:14.845Z,4.15
2023-10-24T12:51:43.725Z,4.05
2023-10-24T12:54:11.382Z,3.78
2023-10-24T12:56:39.288Z,4.32
2023-10-24T12:59:07.048Z,3.60
2023-10-24T13:01:34.778Z,3.85
2023-10-24T13:04:02.599Z,3.90
2023-10-24T13:06:39.784Z,3.80
2023-10-24T13:09:09.604Z,3.75
2023-10-24T13:11:38.715Z,3.85
2023-10-24T13:14:06.215Z,3.95
2023-10-24T13:16:33.935Z,3.45
2023-10-24T13:19:01.302Z,3.85
2023-10-24T13:21:29.041Z,3.70
2023-10-24T13:23:56.611Z,3.28
2023-10-24T13:26:24.209Z,3.70
2023-10-24T13:28:51.582Z,3.33
2023-10-24T13:31:19.746Z,3.42
2023-10-24T13:34:26.911Z,3.42
2023-10-24T13:36:38.866Z,4.00
2023-10-24T13:39:07.737Z,3.97
2023-10-24T13:41:35.164Z,4.00
2023-10-24T13:44:02.790Z,3.92
2023-10-24T13:46:31.485Z,3.78
2023-10-24T13:48:59.150Z,3.70
2023-10-24T13:51:27.067Z,4.10
2023-10-24T13:53:58.231Z,3.80
2023-10-24T13:56:29.686Z,4.22
2023-10-24T13:58:57.256Z,3.70
2023-10-24T14:01:25.082Z,4.05
2023-10-24T14:03:52.920Z,3.72
2023-10-24T14:06:20.660Z,3.72
2023-10-24T14:08:48.523Z,4.07
2023-10-24T14:11:16.245Z,3.97
2023-10-24T14:13:44.542Z,3.60
2023-10-24T14:16:12.415Z,4.32
2023-10-24T14:18:40.195Z,4.07
2023-10-24T14:23:57.269Z,4.35
2023-10-24T14:26:25.199Z,3.95
2023-10-24T14:28:54.939Z,4.20
2023-10-24T14:31:22.760Z,3.83
2023-10-24T14:33:50.313Z,3.95
2023-10-24T14:36:18.247Z,3.55
2023-10-24T14:38:45.654Z,3.33
2023-10-24T14:41:13.204Z,4.10
2023-10-24T14:43:40.802Z,3.92
2023-10-24T14:46:08.492Z,3.75
2023-10-24T14:48:38.059Z,3.38
2023-10-24T14:51:06.210Z,3.83
2023-10-24T14:53:33.678Z,3.90
2023-10-24T14:56:01.066Z,3.63
2023-10-24T14:58:28.755Z,3.75
2023-10-24T15:00:57.139Z,3.70
2023-10-24T15:03:24.920Z,3.67
2023-10-24T15:05:52.456Z,4.00
2023-10-24T15:08:19.952Z,3.50
2023-10-24T15:10:47.684Z,3.40
2023-10-24T15:13:15.519Z,3.13
2023-10-24T15:15:44.752Z,2.88
2023-10-24T15:18:13.501Z,3.15
2023-10-24T15:20:41.422Z,3.20
2023-10-24T15:23:09.243Z,3.20
2023-10-24T15:25:38.915Z,2.83
2023-10-24T15:28:06.907Z,2.85
2023-10-24T15:30:37.162Z,2.78
2023-10-24T15:33:05.610Z,2.40
2023-10-24T15:35:35.206Z,2.55
2023-10-24T15:38:02.792Z,2.58
2023-10-24T15:40:30.242Z,2.25
2023-10-24T15:42:58.339Z,2.05
2023-10-24T15:45:30.761Z,2.37
2023-10-24T15:47:58.593Z,2.45
2023-10-24T15:50:27.262Z,2.15
2023-10-24T15:52:55.077Z,2.08
2023-10-24T15:55:27.746Z,2.10
2023-10-24T15:57:58.644Z,2.10
2023-10-24T16:00:30.825Z,2.28
2023-10-24T16:02:58.658Z,1.90
2023-10-24T16:05:26.351Z,2.08
2023-10-24T16:07:53.973Z,1.80
2023-10-24T16:10:21.689Z,1.90
2023-10-24T16:12:49.326Z,2.00
2023-10-24T16:15:17.072Z,2.10
2023-10-24T16:17:53.046Z,1.80
2023-10-24T16:20:21.735Z,1.65
2023-10-24T16:22:50.119Z,1.80
2023-10-24T16:25:20.287Z,1.88
2023-10-24T16:27:48.017Z,2.15
2023-10-24T16:30:15.879Z,2.15
2023-10-24T16:32:46.066Z,1.83
2023-10-24T16:35:13.707Z,1.77
2023-10-24T16:37:41.347Z,2.03
2023-10-24T16:40:09.312Z,1.95
2023-10-24T16:42:37.284Z,1.92
2023-10-24T16:48:54.322Z,1.90
2023-10-24T16:51:24.099Z,2.15
2023-10-24T16:53:51.677Z,2.20
2023-10-24T16:56:19.343Z,2.05
2023-10-24T16:58:46.976Z,2.20
2023-10-24T17:01:14.763Z,2.00
2023-10-24T17:03:42.249Z,2.30
2023-10-24T17:06:10.046Z,2.00
2023-10-24T17:08:39.740Z,2.28
2023-10-24T17:11:11.057Z,2.58
2023-10-24T17:13:42.609Z,2.08
2023-10-24T17:16:10.438Z,2.00
2023-10-24T17:18:43.175Z,2.40
2023-10-24T17:21:11.824Z,2.20
2023-10-24T17:23:39.274Z,2.30
2023-10-24T17:26:26.898Z,2.65
2023-10-24T17:29:08.268Z,1.95
2023-10-24T17:31:44.752Z,2.15
2023-10-24T17:34:13.383Z,2.20
2023-10-24T17:36:40.929Z,2.70
2023-10-24T17:39:15.181Z,2.70
2023-10-24T17:41:42.751Z,2.70
2023-10-24T17:44:12.068Z,2.38
2023-10-24T17:46:42.157Z,2.47
2023-10-24T17:49:13.743Z,2.20
2023-10-24T17:51:45.461Z,2.22
2023-10-24T17:54:15.091Z,2.30
2023-10-24T17:56:46.513Z,2.33
2023-10-24T17:59:15.380Z,2.03
2023-10-24T18:01:43.880Z,2.35
2023-10-24T18:04:12.544Z,2.53
2023-10-24T18:06:40.522Z,2.50
2023-10-24T18:09:08.977Z,2.42
2023-10-24T18:11:36.271Z,2.10
2023-10-24T18:14:04.607Z,2.15
2023-10-24T18:16:33.081Z,2.80
2023-10-24T18:19:02.966Z,2.30
2023-10-24T18:21:33.041Z,2.38
2023-10-24T18:24:00.595Z,1.95
2023-10-24T18:26:28.271Z,2.20
2023-10-24T18:28:55.867Z,2.28
2023-10-24T18:31:25.773Z,2.58
2023-10-24T18:33:53.732Z,2.45
2023-10-24T18:36:21.194Z,2.22
2023-10-24T18:38:48.829Z,2.22
2023-10-24T18:41:18.039Z,2.20
2023-10-24T18:43:45.870Z,2.15
2023-10-24T18:46:13.905Z,2.10
2023-10-24T18:48:42.533Z,2.10
2023-10-24T18:51:12.137Z,2.30
2023-10-24T18:53:41.317Z,2.17
2023-10-24T18:56:09.874Z,2.22
2023-10-24T18:58:39.599Z,2.75
2023-10-24T19:01:11.060Z,2.35
2023-10-24T19:03:45.408Z,2.05
2023-10-24T19:06:13.919Z,2.35
2023-10-24T19:08:41.732Z,1.95
2023-10-24T19:11:11.887Z,2.30
2023-10-24T19:13:40.766Z,2.03
2023-10-24T19:16:09.138Z,1.90
2023-10-24T19:18:36.931Z,2.38
2023-10-24T19:21:07.227Z,1.90
2023-10-24T19:23:35.189Z,2.27
2023-10-24T19:26:08.634Z,2.00
2023-10-24T19:28:36.411Z,1.90
2023-10-24T19:31:04.252Z,1.83
2023-10-24T19:33:32.300Z,2.10
2023-10-24T19:36:06.409Z,1.90
2023-10-24T19:38:39.943Z,2.03
2023-10-24T19:41:08.002Z,1.70
2023-10-24T19:43:38.225Z,1.77
2023-10-24T19:46:09.191Z,2.47
2023-10-24T19:51:06.487Z,1.80
2023-10-24T19:53:37.552Z,1.90
2023-10-24T19:56:06.838Z,1.83
2023-10-24T19:58:40.414Z,1.80
2023-10-24T20:01:12.158Z,1.70
2023-10-24T20:03:40.823Z,1.67
2023-10-24T20:06:12.078Z,1.67
2023-10-24T20:08:45.481Z,1.95
2023-10-24T20:12:35.253Z,2.08
2023-10-24T20:14:03.056Z,1.75
2023-10-24T20:16:34.884Z,1.70
2023-10-24T20:19:05.129Z,1.83
2023-10-24T20:21:34.138Z,1.90
2023-10-24T20:24:02.359Z,2.00
2023-10-24T20:26:31.062Z,1.98
2023-10-24T20:29:00.093Z,1.98
2023-10-24T20:31:27.837Z,1.85
2023-10-24T20:34:12.227Z,1.30
2023-10-24T20:36:49.906Z,2.00
2023-10-24T20:39:17.575Z,1.70
2023-10-24T20:41:45.687Z,1.92
2023-10-24T20:44:15.630Z,1.80
2023-10-24T20:46:43.114Z,1.58
2023-10-24T20:49:12.899Z,1.60
2023-10-24T20:51:40.548Z,1.52
2023-10-24T20:54:08.226Z,1.40
2023-10-24T20:56:35.692Z,1.70
2023-10-24T20:59:03.833Z,1.80
2023-10-24T21:01:31.347Z,1.50
2023-10-24T21:03:59.128Z,1.50
2023-10-24T21:06:26.701Z,1.70
2023-10-24T21:08:54.419Z,1.65
2023-10-24T21:11:21.931Z,1.58
2023-10-24T21:13:49.782Z,1.63
2023-10-24T21:16:17.545Z,1.65
2023-10-24T21:18:45.166Z,1.60
2023-10-24T21:21:13.980Z,1.50
2023-10-24T21:23:43.789Z,1.42
2023-10-24T21:26:11.164Z,1.70
2023-10-24T21:28:42.319Z,1.42
2023-10-24T21:31:10.103Z,1.55
2023-10-24T21:33:37.799Z,1.70
2023-10-24T21:36:06.276Z,1.65
2023-10-24T21:38:33.894Z,1.40
2023-10-24T21:41:01.663Z,1.48
2023-10-24T21:43:29.535Z,1.50
2023-10-24T21:46:11.070Z,1.60
2023-10-24T21:48:38.793Z,1.40
2023-10-24T21:51:06.952Z,1.45
2023-10-24T21:53:36.068Z,1.30
2023-10-24T21:56:06.927Z,1.40
2023-10-24T21:58:34.721Z,1.50
2023-10-24T22:01:04.059Z,1.20
2023-10-24T22:03:32.099Z,1.52
2023-10-24T22:05:59.771Z,1.52
2023-10-24T22:08:27.358Z,1.40
2023-10-24T22:10:54.882Z,1.30
2023-10-24T22:13:22.767Z,1.30
2023-10-24T22:15:50.416Z,1.38
2023-10-24T22:18:18.047Z,1.40
2023-10-24T22:20:45.558Z,1.38
2023-10-24T22:23:15.480Z,1.42
2023-10-24T22:25:42.907Z,1.30
2023-10-24T22:28:13.534Z,1.40
2023-10-24T22:30:40.998Z,1.40
2023-10-24T22:33:08.757Z,1.23
2023-10-24T22:35:36.462Z,1.33
2023-10-24T22:38:04.452Z,1.40
2023-10-24T22:40:31.878Z,1.23
2023-10-24T22:42:59.366Z,1.38
2023-10-24T22:45:27.456Z,1.20
2023-10-24T22:47:55.521Z,1.20
2023-10-24T22:50:23.041Z,1.30
2023-10-24T22:52:53.382Z,1.20
2023-10-24T22:55:20.907Z,1.20
2023-10-24T22:57:52.241Z,1.10
2023-10-24T23:00:19.994Z,1.33
2023-10-24T23:02:48.023Z,1.40
2023-10-24T23:05:16.629Z,1.27
2023-10-24T23:07:44.300Z,1.40
2023-10-24T23:10:12.078Z,1.00
2023-10-24T23:12:42.214Z,1.20
2023-10-24T23:15:10.222Z,1.35
2023-10-24T23:17:37.910Z,1.10
2023-10-24T23:20:06.079Z,1.25
2023-10-24T23:22:35.920Z,1.02
2023-10-24T23:25:03.532Z,1.15
2023-10-24T23:27:31.323Z,1.33
2023-10-24T23:29:59.080Z,1.27
2023-10-24T23:32:26.706Z,1.15
2023-10-24T23:34:56.398Z,1.10
2023-10-24T23:37:24.018Z,1.25
2023-10-24T23:39:51.752Z,1.20
2023-10-24T23:42:21.812Z,1.00
2023-10-24T23:44:51.454Z,1.30
2023-10-24T23:47:19.241Z,1.30
2023-10-24T23:49:46.800Z,1.10
2023-10-24T23:52:14.567Z,1.23
2023-10-24T23:54:42.034Z,1.20
2023-10-24T23:57:10.008Z,1.30
2023-10-24T23:59:40.965Z,1.30
